• Join FlightAware (Why Join?)
  • Login
  • US Flag 
01:25AM EDT


 

Airport Tracker/Info


-or-


 

Live Flight TrackerFlight Track Log ✈ UAL1116 ✈ 02-Jan-2014 ✈ KSAN - KEWR

Flight Track Log - Related Links

Times and Time Zones

All times are in EST time to prevent confusion due to time zone crossing. See the UAL1116 flight status page for this flight to view local times or setup timezone preferences in your user account.

Time Position Orientation Groundspeed Altitude Reporting Facility
EST Latitude Longitude Course Direction KTS MPH feet Rate Location/Type
10:33AM 32.7411 -117.2272 286° West 171 197 1,300  Level Los Angeles Center
10:35AM 32.7572 -117.2922 286° West 207 238 3,600 2,520 Climbing Los Angeles Center
10:36AM 32.6981 -117.3147 198° South 266 306 6,600 2,940 Climbing Los Angeles Center
10:37AM 32.6483 -117.2417 129° Southeast 289 333 9,700 2,340 Climbing Los Angeles Center
10:38AM 32.6342 -117.1361 99° East 316 364 11,500 1,980 Climbing Los Angeles Center
10:39AM 32.6147 -117.0133 101° East 367 422 14,200 2,520 Climbing Los Angeles Center
10:40AM 32.6214 -116.8592 87° East 387 445 17,300 2,820 Climbing Los Angeles Center
10:41AM 32.7003 -116.7417 51° Northeast 408 470 20,000 2,280 Climbing Los Angeles Center
10:42AM 32.8025 -116.6769 28° Northeast 411 473 22,000 1,920 Climbing Los Angeles Center
10:43AM 32.9094 -116.6117 27° Northeast 422 486 24,000 1,620 Climbing Los Angeles Center
10:44AM 32.9975 -116.5564 28° Northeast 433 498 25,400 1,620 Climbing Los Angeles Center
10:45AM 33.1328 -116.4719 28° Northeast 447 514 27,400 1,740 Climbing Los Angeles Center
10:46AM 33.2342 -116.3792 37° Northeast 461 531 29,100 1,680 Climbing Los Angeles Center
10:47AM 33.3186 -116.2589 50° Northeast 467 537 30,900 1,680 Climbing Los Angeles Center
10:48AM 33.4006 -116.1411 50° Northeast 462 532 32,600 1,560 Climbing Los Angeles Center
10:49AM 33.4817 -116.0256 50° Northeast 456 525 34,200 1,200 Climbing Los Angeles Center
10:50AM 33.5619 -115.9103 50° Northeast 450 518 35,200 1,020 Climbing Los Angeles Center
10:51AM 33.6600 -115.7706 50° Northeast 456 525 36,400 780 Climbing Los Angeles Center
10:52AM 33.7400 -115.6522 51° Northeast 457 526 36,900 240 Climbing Los Angeles Center
10:53AM 33.8214 -115.5347 50° Northeast 458 527 37,000  Climbing Los Angeles Center
10:54AM 33.9028 -115.4158 50° Northeast 460 529 37,000  Level Los Angeles Center
10:55AM 33.9819 -115.2989 51° Northeast 454 522 37,000  Level Los Angeles Center
10:56AM 34.0633 -115.1817 50° Northeast 457 526 37,000  Level Los Angeles Center
10:57AM 34.1433 -115.0636 51° Northeast 455 524 37,000 -60 Level Los Angeles Center
10:58AM 34.2392 -114.9219 51° Northeast 454 522 36,900  Descending Los Angeles Center
10:59AM 34.3189 -114.8072 50° Northeast 449 517 37,000  Climbing Los Angeles Center
11:00AM 34.3981 -114.6892 51° Northeast 451 519 37,000  Level Los Angeles Center
11:01AM 34.4781 -114.5681 51° Northeast 456 525 37,000  Level Los Angeles Center
11:02AM 34.5586 -114.4506 50° Northeast 456 525 37,000  Level Los Angeles Center
11:04AM 34.6386 -114.3297 51° Northeast 458 527 37,000  Level Los Angeles Center
11:05AM 34.7244 -114.1983 51° Northeast 459 528 37,000  Level Los Angeles Center
11:06AM 34.7967 -114.0700 56° Northeast 461 531 37,000  Level Los Angeles Center
11:07AM 34.8658 -113.9297 59° Northeast 464 534 37,000  Level Los Angeles Center
11:08AM 34.9306 -113.7961 59° Northeast 460 529 37,000  Level Los Angeles Center
11:09AM 34.9953 -113.6625 59° Northeast 459 528 37,000  Level Los Angeles Center
11:10AM 35.0742 -113.5025 59° Northeast 460 529 37,000  Level Los Angeles Center
11:11AM 35.1511 -113.3439 59° Northeast 456 525 37,000  Level Los Angeles Center
11:12AM 35.2133 -113.2144 60° Northeast 457 526 37,000  Level Los Angeles Center
11:13AM 35.2767 -113.0814 60° Northeast 454 522 37,000  Level Los Angeles Center
11:14AM 35.3503 -112.9258 60° Northeast 456 525 37,000  Level Los Angeles Center
11:15AM 35.4147 -112.7903 60° Northeast 459 528 37,000  Level Los Angeles Center
11:16AM 35.4797 -112.6553 59° Northeast 461 531 37,000  Level Los Angeles Center
11:17AM 35.5406 -112.5242 60° Northeast 460 529 37,000  Level Los Angeles Center
11:18AM 35.6044 -112.3886 60° Northeast 459 528 37,000  Level Los Angeles Center
11:19AM 35.6553 -112.2794 60° Northeast 463 533 37,000  Level Los Angeles Center
11:20AM 35.7447 -112.0883 60° Northeast 463 533 37,000  Level Los Angeles Center
11:21AM 35.8089 -111.9514 60° Northeast 465 535 37,000  Level Los Angeles Center
11:22AM 35.8706 -111.8142 61° Northeast 462 532 37,000  Level Los Angeles Center
11:23AM 35.9478 -111.6489 60° Northeast 459 528 37,000  Level Denver Center
11:24AM 36.0094 -111.5144 60° Northeast 455 524 37,000  Level Denver Center
11:25AM 36.0711 -111.3783 61° Northeast 455 524 37,000  Level Denver Center
11:26AM 36.1275 -111.2392 63° Northeast 456 525 37,000  Level Denver Center
11:28AM 36.1606 -111.0833 75° East 466 536 37,000  Level Denver Center
11:29AM 36.1997 -110.8983 75° East 465 535 37,000  Level Denver Center
11:30AM 36.2319 -110.7450 75° East 464 534 37,000  Level Denver Center
11:31AM 36.2631 -110.5914 76° East 462 532 37,000  Level Denver Center
11:32AM 36.2931 -110.4381 76° East 461 531 37,000  Level Denver Center
11:33AM 36.3261 -110.2850 75° East 461 531 37,000  Level Denver Center
11:34AM 36.3642 -110.1019 75° East 462 532 37,000  Level Denver Center
11:35AM 36.3936 -109.9539 76° East 461 531 37,000  Level Denver Center
11:36AM 36.4222 -109.8058 76° East 461 531 37,000  Level Denver Center
11:37AM 36.4569 -109.6317 76° East 464 534 37,000  Level Denver Center
11:38AM 36.4858 -109.4828 76° East 463 533 37,000  Level Denver Center
11:39AM 36.5381 -109.3153 69° East 466 536 37,000  Level Denver Center
11:40AM 36.6122 -109.1322 63° Northeast 463 533 37,000  Level Denver Center
11:41AM 36.6675 -108.9944 63° Northeast 462 532 37,000  Level Denver Center
11:42AM 36.7219 -108.8572 64° Northeast 459 528 37,000  Level Denver Center
11:43AM 36.7856 -108.6956 64° Northeast 463 533 37,000  Level Denver Center
11:44AM 36.8400 -108.5592 63° Northeast 460 529 37,000  Level Denver Center
11:45AM 36.9028 -108.4008 64° Northeast 455 524 37,000  Level Denver Center
11:46AM 36.9558 -108.2667 64° Northeast 451 519 37,000  Level Denver Center
11:47AM 37.0169 -108.1089 64° Northeast 451 519 37,000  Level Denver Center
11:48AM 37.0700 -107.9747 64° Northeast 449 517 37,000  Level Denver Center
11:49AM 37.1308 -107.8150 64° Northeast 452 520 37,000  Level Denver Center
11:50AM 37.1839 -107.6783 64° Northeast 454 522 37,000  Level Denver Center
11:52AM 37.2458 -107.5181 64° Northeast 457 526 37,000  Level Denver Center
11:53AM 37.2978 -107.3819 64° Northeast 453 521 37,000  Level Denver Center
11:54AM 37.3489 -107.2475 64° Northeast 448 516 37,000  Level Denver Center
11:55AM 37.4097 -107.0864 65° Northeast 454 522 37,000  Level Denver Center
11:56AM 37.4611 -106.9478 65° Northeast 455 524 37,000  Level Denver Center
11:57AM 37.5214 -106.7886 64° Northeast 451 519 37,000  Level Denver Center
11:58AM 37.5717 -106.6519 65° Northeast 451 519 37,000  Level Denver Center
11:59AM 37.6308 -106.4933 65° Northeast 448 516 37,000  Level Denver Center
12:00PM 37.6989 -106.3100 65° Northeast 452 520 37,000  Level Denver Center
12:01PM 37.7494 -106.1722 65° Northeast 451 519 37,000  Level Denver Center
12:02PM 37.8061 -106.0175 65° Northeast 450 518 37,000  Level Denver Center
12:03PM 37.8556 -105.8789 66° East 450 518 37,000  Level Denver Center
12:04PM 37.9225 -105.6933 65° Northeast 453 521 37,000  Level Denver Center
12:05PM 37.9725 -105.5558 65° Northeast 450 518 37,000 240 Level Denver Center
12:06PM 38.0303 -105.3928 66° East 452 520 37,600 840 Climbing Denver Center
12:07PM 38.0794 -105.2544 66° East 451 519 38,800 660 Climbing Denver Center
12:09PM 38.1361 -105.0956 66° East 444 511 39,000 60 Climbing Denver Center
12:11PM 38.2425 -104.7925 65° Northeast 451 519 39,000  Level Denver Center
12:12PM 38.2906 -104.6556 66° East 445 512 39,000  Level Denver Center
12:13PM 38.3431 -104.5058 66° East 446 513 39,000  Level Denver Center
12:14PM 38.3922 -104.3611 67° East 447 514 39,000  Level Denver Center
12:15PM 38.4431 -104.2125 66° East 455 524 39,000  Level Denver Center
12:16PM 38.5008 -104.0453 66° East 450 518 39,000  Level Denver Center
12:17PM 38.5486 -103.9031 67° East 453 521 39,000  Level Denver Center
12:18PM 38.6056 -103.7369 66° East 455 524 39,000  Level Denver Center
12:19PM 38.6539 -103.5925 67° East 459 528 39,000  Level Denver Center
12:20PM 38.7094 -103.4250 67° East 457 526 39,000  Level Denver Center
12:21PM 38.7628 -103.2647 67° East 459 528 39,000  Level Denver Center
12:22PM 38.8131 -103.1142 67° East 461 531 39,000  Level Denver Center
12:23PM 38.8622 -102.9639 67° East 460 529 39,000  Level Denver Center
12:24PM 38.9122 -102.8103 67° East 467 537 39,000  Level Denver Center
12:25PM 38.9686 -102.6372 67° East 465 535 39,000  Level Denver Center
12:26PM 39.0161 -102.4900 67° East 465 535 39,000  Level Denver Center
12:27PM 39.0711 -102.3192 67° East 462 532 39,000  Level Denver Center
12:28PM 39.1181 -102.1739 67° East 459 528 39,000  Level Denver Center
12:29PM 39.1644 -102.0272 68° East 462 532 39,000  Level Denver Center
12:30PM 39.2183 -101.8583 68° East 457 526 39,000  Level Denver Center
12:31PM 39.2633 -101.7131 68° East 456 525 39,000  Level Denver Center
12:32PM 39.3178 -101.5392 68° East 458 527 39,000  Level Denver Center
12:33PM 39.3636 -101.3931 68° East 460 529 39,000  Level Denver Center
12:34PM 39.4167 -101.2219 68° East 458 527 39,000  Level Denver Center
12:35PM 39.4614 -101.0739 69° East 463 533 39,000  Level Denver Center
12:36PM 39.5147 -100.9025 68° East 461 531 39,000  Level Denver Center
12:37PM 39.5581 -100.7556 69° East 458 527 39,000  Level Denver Center
12:39PM 39.6097 -100.5875 68° East 453 521 39,000  Level Denver Center
12:40PM 39.6531 -100.4450 68° East 448 516 39,000  Level Denver Center
12:41PM 39.7031 -100.2767 69° East 449 517 39,000  Level Denver Center
12:42PM 39.7450 -100.1342 69° East 444 511 39,000  Level Denver Center
12:43PM 39.7944 -99.9669 69° East 443 510 39,000  Level Denver Center
12:44PM 39.8378 -99.8194 69° East 437 503 39,000  Level Denver Center
12:45PM 39.8808 -99.6725 69° East 435 501 39,000  Level Denver Center
12:46PM 39.9236 -99.5236 69° East 439 505 39,000  Level Denver Center
12:47PM 39.9664 -99.3736 70° East 442 509 39,000  Level Denver Center
12:48PM 40.0106 -99.2236 69° East 444 511 39,000  Level Denver Center
12:49PM 40.0611 -99.0422 70° East 445 512 39,000  Level Denver Center
12:50PM 40.1044 -98.8917 69° East 447 514 39,000  Level Minneapolis Center
12:51PM 40.1469 -98.7411 70° East 445 512 39,000  Level Minneapolis Center
12:52PM 40.1897 -98.5892 70° East 445 512 39,000  Level Minneapolis Center
12:53PM 40.2322 -98.4369 70° East 447 514 39,000  Level Minneapolis Center
12:54PM 40.2744 -98.2822 70° East 451 519 39,000  Level Minneapolis Center
12:55PM 40.3250 -98.0967 70° East 453 521 39,000  Level Minneapolis Center
12:56PM 40.3667 -97.9406 71° East 454 522 39,000  Level Minneapolis Center
12:57PM 40.4092 -97.7847 70° East 455 524 39,000  Level Minneapolis Center
12:58PM 40.4522 -97.6278 70° East 457 526 39,000  Level Minneapolis Center
12:59PM 40.4931 -97.4703 71° East 457 526 39,000  Level Minneapolis Center
01:00PM 40.5394 -97.2964 71° East 459 528 39,000  Level Minneapolis Center
01:01PM 40.5822 -97.1369 70° East 462 532 39,000  Level Minneapolis Center
01:02PM 40.6231 -96.9781 71° East 461 531 39,000  Level Minneapolis Center
01:03PM 40.6650 -96.8183 71° East 463 533 39,000  Level Minneapolis Center
01:04PM 40.7064 -96.6606 71° East 460 529 39,000  Level Minneapolis Center
01:05PM 40.7564 -96.4686 71° East 462 532 39,000  Level Minneapolis Center
01:06PM 40.7964 -96.3089 72° East 461 531 39,000  Level Minneapolis Center
01:07PM 40.8375 -96.1497 71° East 461 531 39,000  Level Minneapolis Center
01:08PM 40.8775 -95.9897 72° East 461 531 39,000  Level Minneapolis Center
01:09PM 40.9167 -95.8317 72° East 460 529 39,000  Level Minneapolis Center
01:10PM 40.9558 -95.6731 72° East 458 527 39,000  Level Minneapolis Center
01:12PM 41.0039 -95.4794 72° East 464 534 39,000  Level Minneapolis Center
01:13PM 41.0444 -95.3181 72° East 465 535 39,000  Level Minneapolis Center
01:14PM 41.0836 -95.1578 72° East 463 533 39,000  Level Minneapolis Center
01:15PM 41.1228 -94.9942 72° East 464 534 39,000  Level Minneapolis Center
01:16PM 41.1622 -94.8300 72° East 467 537 39,000  Level Minneapolis Center
01:17PM 41.2019 -94.6656 72° East 468 539 39,000  Level Minneapolis Center
01:18PM 41.2489 -94.4669 72° East 469 540 39,000  Level Minneapolis Center
01:19PM 41.2875 -94.3017 73° East 470 541 39,000  Level Minneapolis Center
01:20PM 41.3239 -94.1400 73° East 468 539 39,000  Level Minneapolis Center
01:21PM 41.3611 -93.9750 73° East 468 539 39,000  Level Minneapolis Center
01:22PM 41.4006 -93.8089 72° East 468 539 39,000  Level Minneapolis Center
01:23PM 41.4383 -93.6442 73° East 468 539 39,000  Level Minneapolis Center
01:24PM 41.4539 -93.4733 83° East 468 539 39,000  Level Minneapolis Center
01:25PM 41.4744 -93.2656 82° East 471 542 39,000  Level Minneapolis Center
01:26PM 41.4903 -93.0936 83° East 470 541 39,000  Level Minneapolis Center
01:27PM 41.5064 -92.9239 83° East 465 535 39,000  Level Minneapolis Center
01:28PM 41.5222 -92.7517 83° East 466 536 39,000  Level Minneapolis Center
01:29PM 41.5344 -92.6156 83° East 468 539 39,000  Level Chicago Center
01:30PM 41.5486 -92.4450 84° East 466 536 39,000  Level Chicago Center
01:31PM 41.5678 -92.2400 83° East 467 537 39,000  Level Chicago Center
01:32PM 41.5819 -92.0689 84° East 467 537 39,000  Level Chicago Center
01:33PM 41.5964 -91.8958 84° East 472 543 39,000  Level Chicago Center
01:34PM 41.6097 -91.7231 84° East 473 544 39,000  Level Chicago Center
01:35PM 41.6244 -91.5492 83° East 474 545 39,000  Level Chicago Center
01:36PM 41.6378 -91.3772 84° East 473 544 39,000  Level Chicago Center
01:37PM 41.6544 -91.1711 84° East 472 543 39,000  Level Chicago Center
01:38PM 41.6667 -90.9961 85° East 475 547 39,000  Level Chicago Center
01:39PM 41.6800 -90.8256 84° East 468 539 39,000  Level Chicago Center
01:40PM 41.6914 -90.6536 85° East 468 539 39,000  Level Chicago Center
01:41PM 41.7044 -90.4717 84° East 469 540 39,000  Level Chicago Center
01:42PM 41.7167 -90.2964 85° East 471 542 39,000  Level Chicago Center
01:43PM 41.7292 -90.1225 84° East 469 540 39,000  Level Chicago Center
01:44PM 41.7400 -89.9461 85° East 474 545 39,000  Level Chicago Center
01:45PM 41.7525 -89.7706 84° East 473 544 39,000  Level Chicago Center
01:46PM 41.7658 -89.5575 85° East 477 549 39,000  Level Chicago Center
01:47PM 41.7767 -89.3753 85° East 474 545 39,000  Level Chicago Center
01:48PM 41.7875 -89.1981 85° East 475 547 39,000  Level Chicago Center
01:49PM 41.7975 -89.0208 86° East 477 549 39,000  Level Chicago Center
01:50PM 41.8064 -88.8458 86° East 473 544 39,000  Level Chicago Center
01:51PM 41.8158 -88.6675 86° East 477 549 39,000  Level Chicago Center
01:53PM 41.8253 -88.4889 86° East 479 551 39,000  Level Chicago Center
01:54PM 41.8342 -88.3103 86° East 479 551 39,000  Level Chicago Center
01:55PM 41.8436 -88.1297 86° East 482 555 39,000  Level Chicago Center
01:56PM 41.8547 -87.9169 86° East 474 545 39,000  Level Chicago Center
01:57PM 41.8631 -87.7392 86° East 475 547 39,000  Level Chicago Center
01:58PM 41.8711 -87.5619 86° East 475 547 39,000  Level Chicago Center
01:59PM 41.8783 -87.3847 87° East 475 547 39,000  Level Chicago Center
02:00PM 41.8858 -87.2069 87° East 477 549 39,000  Level Chicago Center
02:01PM 41.8928 -87.0303 87° East 476 548 39,000  Level Chicago Center
02:02PM 41.8997 -86.8531 87° East 476 548 39,000  Level Chicago Center
02:03PM 41.9067 -86.6478 87° East 478 550 39,000  Level Chicago Center
02:04PM 41.9136 -86.4706 87° East 477 549 39,000  Level Chicago Center
02:05PM 41.9200 -86.2922 87° East 478 550 39,000  Level Chicago Center
02:06PM 41.9261 -86.1125 87° East 481 554 39,000  Level Chicago Center
02:07PM 41.9308 -85.9325 88° East 482 555 39,000  Level Chicago Center
02:08PM 41.9369 -85.7517 87° East 484 557 39,000  Level Chicago Center
02:09PM 41.9419 -85.5694 88° East 485 558 39,000 -60 Level Chicago Center
02:10PM 41.9464 -85.3864 88° East 485 558 38,900  Descending Chicago Center
02:11PM 41.9517 -85.2036 88° East 487 560 39,000  Climbing Chicago Center
02:12PM 41.9506 -84.9856 90° East 485 558 39,000  Level Chicago Center
02:13PM 41.9489 -84.8033 91° East 487 560 39,000  Level Chicago Center
02:14PM 41.9483 -84.6208 90° East 487 560 39,000  Level Chicago Center
02:15PM 41.9464 -84.4375 91° East 491 565 39,000  Level Chicago Center
02:16PM 41.9450 -84.2544 91° East 491 565 39,000  Level Chicago Center
02:17PM 41.9436 -84.0644 90° East 494 568 39,000  Level Cleveland Center
02:18PM 41.9400 -83.8436 91° East 498 573 39,000  Level Cleveland Center
02:19PM 41.9381 -83.6608 91° East 497 572 39,000  Level Cleveland Center
02:20PM 41.9344 -83.4650 91° East 496 571 39,000  Level Cleveland Center
02:21PM 41.9342 -83.2772 90° East 498 573 39,000  Level Cleveland Center
02:22PM 41.9342 -83.1111 90° East 499 574 39,000  Level Cleveland Center
02:23PM 41.9319 -82.8894 91° East 499 574 39,000  Level Cleveland Center
02:25PM 41.9292 -82.7025 91° East 504 580 39,000  Level Cleveland Center
02:26PM 41.9286 -82.5133 90° East 509 586 39,000  Level Cleveland Center
02:27PM 41.9244 -82.3242 92° East 509 586 39,000  Level Cleveland Center
02:28PM 41.9219 -82.1339 91° East 511 588 39,000  Level Cleveland Center
02:29PM 41.9175 -81.9033 91° East 517 595 39,000  Level Cleveland Center
02:30PM 41.9056 -81.7067 95° East 521 600 39,000 -420 Level Cleveland Center
02:31PM 41.8878 -81.5122 97° East 520 598 38,200 -540 Descending Cleveland Center
02:32PM 41.8706 -81.3222 97° East 511 588 38,000 -120 Descending Cleveland Center
02:33PM 41.8533 -81.1342 97° East 504 580 38,000  Level Cleveland Center
02:34PM 41.8369 -80.9464 97° East 502 578 38,000  Level Cleveland Center
02:35PM 41.8189 -80.7553 97° East 508 585 38,000  Level Cleveland Center
02:36PM 41.7986 -80.5628 98° East 514 592 38,000  Level Cleveland Center
02:37PM 41.7792 -80.3692 98° East 519 597 38,000  Level Cleveland Center
02:38PM 41.7606 -80.1750 97° East 522 601 38,000  Level Cleveland Center
02:39PM 41.7397 -79.9792 98° East 525 604 38,000  Level Cleveland Center
02:40PM 41.7203 -79.7819 97° East 529 609 38,000  Level Cleveland Center
02:41PM 41.6975 -79.5778 98° East 532 612 38,000  Level Cleveland Center
02:42PM 41.6753 -79.3800 98° East 536 617 38,000  Level Cleveland Center
02:43PM 41.6533 -79.1803 98° East 543 625 38,000  Level Cleveland Center
02:44PM 41.6269 -78.9417 98° East 541 623 38,000  Level Cleveland Center
02:45PM 41.6033 -78.7397 99° East 547 629 38,000 -480 Level Cleveland Center
02:46PM 41.5803 -78.5403 99° East 543 625 37,100 -960 Descending Cleveland Center
02:47PM 41.5564 -78.3406 99° East 541 623 36,100 -960 Descending Cleveland Center
02:48PM 41.5325 -78.1467 99° East 532 612 35,200 -1,080 Descending Cleveland Center
02:49PM 41.5111 -77.9581 99° East 521 600 33,900 -1,440 Descending Cleveland Center
02:50PM 41.4850 -77.7739 101° East 510 587 32,300 -1,560 Descending Cleveland Center
02:51PM 41.4572 -77.5869 101° East 511 588 30,800 -1,260 Descending Cleveland Center
02:52PM 41.4306 -77.4014 101° East 511 588 29,800 -1,080 Descending Cleveland Center
02:53PM 41.4042 -77.2219 101° East 499 574 28,700 -1,140 Descending Cleveland Center
02:54PM 41.3725 -77.0094 101° East 490 564 27,500 -1,080 Descending Cleveland Center
02:55PM 41.3475 -76.8347 101° East 484 557 26,500 -1,020 Descending Cleveland Center
02:56PM 41.3075 -76.6617 107° East 487 560 25,500 -1,380 Descending Cleveland Center
02:57PM 41.2628 -76.4950 110° East 482 555 23,700 -1,920 Descending Cleveland Center
02:58PM 41.2192 -76.3350 110° East 466 536 21,600 -2,220 Descending Cleveland Center
03:00PM 41.1631 -76.1286 110° East 468 539 18,800 -1,680 Descending New York Center
03:01PM 41.1219 -75.9767 110° East 440 506 17,900 -1,020 Descending New York Center
03:02PM 41.0883 -75.8419 108° East 434 499 16,800 -1,800 Descending New York Center
03:03PM 41.0428 -75.6844 111° Southeast 426 490 14,400 -1,920 Descending New York Center
03:04PM 41.0119 -75.5722 110° East 409 471 13,000 -900 Descending New York Center
03:05PM 40.9681 -75.4208 111° Southeast 378 435 12,700 -1,020 Descending New York Center
03:06PM 40.9389 -75.3089 109° East 357 411 11,000 -1,260 Descending New York Center
03:07PM 40.9058 -75.1942 111° Southeast 347 399 10,200 -1,260 Descending New York Center
03:08PM 40.8728 -75.0767 110° East 320 368 8,500 -1,500 Descending New York Center
03:09PM 40.8431 -74.9761 111° Southeast 304 350 7,200 -780 Descending New York Center
03:10PM 40.8194 -74.8731 107° East 297 342 7,000 -120 Descending New York Center
03:11PM 40.7997 -74.7814 106° East 292 336 7,000 -780 Level New York Center
03:12PM 40.7614 -74.6806 117° Southeast 284 327 5,500 -1,020 Descending New York Center
03:13PM 40.6983 -74.6358 152° Southeast 274 315 5,000 -420 Descending New York Center
03:14PM 40.6231 -74.5797 150° Southeast 280 322 4,700 -660 Descending New York Center
03:15PM 40.5500 -74.5333 154° Southeast 284 327 3,800 -960 Descending New York TRACON
03:16PM 40.5000 -74.4833 143° Southeast 272 313 3,000 -480 Descending New York TRACON
03:17PM 40.4500 -74.4167 135° Southeast 214 246 3,000  Level New York TRACON
03:18PM 40.4333 -74.3500 108° East 192 221 3,000  Level New York TRACON
03:19PM 40.4667 -74.3000 49° Northeast 166 191 3,000  Level New York TRACON
03:19PM 40.5000 -74.2833 21° North 166 191 3,000  Level New York TRACON
03:20PM 40.5500 -74.2500 27° Northeast 168 193 3,000 -420 Level New York TRACON
03:21PM 40.5833 -74.2333 21° North 162 186 2,200 -900 Descending New York TRACON
03:22PM 40.6167 -74.2167 21° North 155 178 1,400 -900 Descending New York TRACON
03:23PM 40.6667 -74.1833 27° Northeast 140 161 400 -960 Descending New York TRACON
03:26PM 40.6833 -74.1667 23° Northeast  Level FlightAware Approximate